SGES

Details ICAO SGES (AGT)
Name GUARANI INTL
Region Paraguay
Timezone America/Asuncion (UTC-3.0)
Plans Departing 16
Arriving 13
Stats Elevation 846 ft / 258 m (AMSL)
Location -25.455499° -54.843593°
Runways 1
Magnetic Variation 16.079° W
Sunrise 2017-12-12 08:43:39 UTC / 2017-12-12 05:43:39 Local
Sunset 2017-12-12 22:25:34 UTC / 2017-12-12 19:25:34 Local
Advertisement - Login to hide

Runways

ID Width Length Bearing (true) Bearing (mag) Surface Threshold Offset Overrun Length
05 148 ft / 45 m 11,175 ft / 3,406 m 40.64° 56.72° Asphalt 0 ft / 0 m 197 ft / 60 m
23 148 ft / 45 m 11,175 ft / 3,406 m 220.63° 236.71° Asphalt 0 ft / 0 m 197 ft / 60 m

Approach Navaids

Runway Type Ident Frequency Range Bearing (true) Bearing (mag) Slope Elevation
23 Localiser ICES 111.30 MHz 18 nm / 33 km 220.63° 236.71° - 846 ft / 258 m (AMSL)
23 Glidescope ICES 111.30 MHz 10 nm / 19 km 220.63° 236.71° 3.00° 804 ft / 245 m (AMSL)

Map

Weather


0- 5 10 15 20 25 30 35+ Temperature / ° C

Clouds and Precipitation
Forecast for 2017-12-12 18:00 UTC. Updated an hour ago

Ground ~20,000 ft ~40,000 ft Winds

METAR

SGES 121600Z 04004G14KT 330V090 CAVOK 30/18 Q1012

TAF

Not found

Frequencies

Ground 121.70 MHz GND
Approach 119.30 MHz APP
Tower 118.10 MHz TWR
Approach 120.60 MHz APP
Warning: Do not use this data for real-world aviation or navigation. No guarantee of current accuracy is given.